Orbital elements of SES-7
| Launched | 15 May 2009 |
| Flight ended | – |
| Launch site | Tyuratam Missile and Space Center, Kazakhstan (Also known as Baikonur Cosmodrome) |
| Owner | SES |
| NORAD ID | 34941 |
| Alternative names |
PROTOSTAR 2 INDOSTAR 2 |
| Date fetched |
Epoch osculation |
Inc. [°] |
Ecc. | RA asc node [hr] |
Arg Peri. [°] |
Mean anom [°] |
Mean motion [rev/day] |
Abs. mag |
| Date fetched |
Epoch osculation |
Inc. [°] |
Ecc. | RA asc node [hr] |
Arg Peri. [°] |
Mean anom [°] |
Mean motion [rev/day] |
Abs. mag |
| 2026 May 05 17:57 | 2026 May 05 08:33:47 | 0.0938 | 0.00012 | 5.4224 | 274.5148 | 104.0812 | 1.00270 | – |
| 2026 May 04 17:57 | 2026 May 04 08:36:22 | 0.0915 | 0.00013 | 5.3962 | 272.6691 | 104.0812 | 1.00270 | – |
| 2026 May 03 17:57 | 2026 May 03 02:30:14 | 0.0886 | 0.00014 | 5.3513 | 269.7886 | 104.0812 | 1.00270 | – |
| 2026 May 02 17:57 | 2026 May 02 01:49:21 | 0.0863 | 0.00014 | 5.3105 | 267.7134 | 104.0812 | 1.00270 | – |
| 2026 May 01 17:56 | 2026 Apr 30 13:54:41 | 0.0830 | 0.00006 | 5.2530 | 221.1811 | 104.0812 | 1.00270 | – |
| 2026 Apr 30 17:56 | 2026 Apr 30 07:03:58 | 0.0824 | 0.00006 | 5.2413 | 220.4939 | 104.0812 | 1.00270 | – |
| 2026 Apr 29 17:57 | 2026 Apr 29 12:14:33 | 0.0805 | 0.00007 | 5.2132 | 220.0912 | 104.0812 | 1.00270 | – |
| 2026 Apr 28 17:56 | 2026 Apr 28 10:34:28 | 0.1018 | 0.00016 | 5.3331 | 251.7904 | 104.0812 | 1.00270 | – |
| 2026 Apr 27 17:58 | 2026 Apr 27 10:40:38 | 0.0993 | 0.00016 | 5.3118 | 249.2577 | 104.0812 | 1.00270 | – |
| 2026 Apr 26 17:58 | 2026 Apr 26 12:22:16 | 0.0969 | 0.00017 | 5.2914 | 246.9708 | 104.0812 | 1.00270 | – |
| 2026 Apr 25 17:58 | 2026 Apr 25 12:24:51 | 0.0943 | 0.00018 | 5.2715 | 244.5434 | 104.0812 | 1.00270 | – |
| 2026 Apr 24 17:59 | 2026 Apr 24 12:27:22 | 0.0916 | 0.00019 | 5.2561 | 242.5896 | 104.0812 | 1.00270 | – |
| 2026 Apr 23 17:57 | 2026 Apr 23 06:39:38 | 0.0883 | 0.00011 | 5.2050 | 209.7662 | 104.0812 | 1.00270 | – |
| 2026 Apr 22 17:57 | 2026 Apr 22 06:31:38 | 0.0857 | 0.00012 | 5.1571 | 210.1710 | 104.0812 | 1.00270 | – |
| 2026 Apr 21 17:57 | 2026 Apr 21 09:09:40 | 0.1074 | 0.00019 | 5.3101 | 238.7888 | 104.0812 | 1.00270 | – |
| 2026 Apr 20 17:57 | 2026 Apr 20 10:54:54 | 0.1049 | 0.00019 | 5.2891 | 238.4581 | 104.0812 | 1.00270 | – |
| 2026 Apr 19 17:58 | 2026 Apr 19 10:57:29 | 0.1023 | 0.00019 | 5.2655 | 238.5870 | 104.0812 | 1.00270 | – |
| 2026 Apr 18 17:56 | 2026 Apr 18 05:26:38 | 0.0991 | 0.00019 | 5.2326 | 239.4916 | 104.0812 | 1.00270 | – |
| 2026 Apr 16 17:57 | 2026 Apr 16 05:54:38 | 0.0938 | 0.00011 | 5.1885 | 208.1625 | 104.0812 | 1.00270 | – |
| 2026 Apr 14 17:57 | 2026 Apr 14 10:24:38 | 0.0890 | 0.00011 | 5.1616 | 210.8196 | 104.0812 | 1.00270 | – |
| 2026 Apr 13 17:57 | 2026 Apr 13 05:31:38 | 0.1096 | 0.00017 | 5.3286 | 243.3179 | 104.0812 | 1.00270 | – |
| 2026 Apr 12 17:57 | 2026 Apr 12 11:15:29 | 0.1076 | 0.00018 | 5.3255 | 243.4091 | 104.0812 | 1.00270 | – |
| 2026 Apr 11 17:57 | 2026 Apr 11 11:18:01 | 0.1051 | 0.00018 | 5.3197 | 243.6387 | 104.0812 | 1.00270 | – |
| 2026 Apr 10 17:58 | 2026 Apr 09 21:39:12 | 0.1014 | 0.00019 | 5.3049 | 244.3062 | 104.0812 | 1.00270 | – |
| 2026 Apr 09 18:01 | 2026 Apr 09 05:41:38 | 0.0998 | 0.00016 | 5.2938 | 249.3964 | 104.0812 | 1.00270 | – |
| 2026 Apr 08 17:57 | 2026 Apr 07 23:26:46 | 0.0971 | 0.00017 | 5.2744 | 248.3800 | 104.0812 | 1.00270 | – |